Time;durP1;ratioP1;P1;durP2;ratioP2;P2;SDS_P1;SDS_P2;PMS_P1;PMS_P2;Temp;Humidity;BMP_temperature;BMP_pressure;BME280_temperature;BME280_humidity;BME280_pressure;Samples;Min_cycle;Max_cycle;Signal;HPM_P1;HPM_P2
2021/07/30 00:00:22;;;;;;;7.90;4.95;;;13.60;99.90;;;;;;4944389;29;20094;-93
2021/07/30 00:02:48;;;;;;;9.18;3.92;;;13.60;99.90;;;;;;4943968;28;20528;-95
2021/07/30 00:05:14;;;;;;;12.07;4.60;;;13.60;99.90;;;;;;4944273;29;20031;-95
2021/07/30 00:07:40;;;;;;;8.48;4.20;;;13.60;99.90;;;;;;4944852;29;20540;-95
2021/07/30 00:10:06;;;;;;;12.35;3.92;;;13.60;99.90;;;;;;4943731;29;20058;-95
2021/07/30 00:12:32;;;;;;;9.43;4.13;;;13.60;99.90;;;;;;4942996;29;20060;-94
2021/07/30 00:14:58;;;;;;;12.25;4.32;;;13.50;99.90;;;;;;4943169;29;20027;-94
2021/07/30 00:17:23;;;;;;;10.13;3.55;;;13.50;99.90;;;;;;4942750;29;20172;-95
2021/07/30 00:19:49;;;;;;;8.98;4.20;;;13.40;99.90;;;;;;4943054;29;20500;-94
2021/07/30 00:22:15;;;;;;;9.27;4.20;;;13.40;99.90;;;;;;4943706;29;20058;-93
2021/07/30 00:24:40;;;;;;;7.65;3.97;;;13.40;99.90;;;;;;4946043;29;20026;-95
2021/07/30 00:27:06;;;;;;;10.25;4.22;;;13.30;99.90;;;;;;4943330;29;20442;-93
2021/07/30 00:29:31;;;;;;;8.55;3.88;;;13.40;99.90;;;;;;4947348;29;20023;-95
2021/07/30 00:31:57;;;;;;;11.98;4.10;;;13.40;99.90;;;;;;4944227;29;20090;-96
2021/07/30 00:34:23;;;;;;;8.85;4.00;;;13.40;99.90;;;;;;4942073;29;20035;-95
2021/07/30 00:36:48;;;;;;;8.93;4.00;;;13.40;99.90;;;;;;4941628;29;20466;-95
2021/07/30 00:39:14;;;;;;;8.75;4.57;;;13.40;99.90;;;;;;4941249;29;20031;-93
2021/07/30 00:41:40;;;;;;;10.27;4.13;;;13.40;99.90;;;;;;4940643;29;20362;-95
2021/07/30 00:44:09;;;;;;;11.02;4.47;;;13.30;99.90;;;;;;4941023;29;20050;-93
2021/07/30 00:46:35;;;;;;;12.95;4.28;;;13.40;99.90;;;;;;4940980;29;20074;-96
2021/07/30 00:49:01;;;;;;;7.68;4.32;;;13.30;99.90;;;;;;4946207;28;20102;-94
2021/07/30 00:51:28;;;;;;;5.95;3.90;;;13.40;99.90;;;;;;4959762;28;20046;-94
2021/07/30 00:53:55;;;;;;;7.00;4.05;;;13.40;99.90;;;;;;4960082;28;20031;-94
2021/07/30 00:56:22;;;;;;;13.70;4.47;;;13.30;99.90;;;;;;4959981;28;20027;-95
2021/07/30 00:58:49;;;;;;;8.27;3.88;;;13.30;99.90;;;;;;4959833;28;20031;-95
2021/07/30 01:01:17;;;;;;;7.40;3.88;;;13.20;99.90;;;;;;4959483;28;20078;-93
2021/07/30 01:03:44;;;;;;;6.95;4.05;;;13.20;99.90;;;;;;4960216;28;20027;-95
2021/07/30 01:06:10;;;;;;;7.05;3.80;;;13.20;99.90;;;;;;4961190;28;20035;-95
2021/07/30 01:08:37;;;;;;;9.35;4.03;;;13.20;99.90;;;;;;4961416;28;20047;-94
2021/07/30 01:11:03;;;;;;;8.55;3.80;;;13.20;99.90;;;;;;4960737;28;20023;-94
2021/07/30 01:13:29;;;;;;;10.25;3.92;;;13.20;99.90;;;;;;4961179;28;20029;-94
2021/07/30 01:15:54;;;;;;;9.25;4.40;;;13.10;99.90;;;;;;4960990;28;20034;-94
2021/07/30 01:18:20;;;;;;;7.22;3.75;;;13.10;99.90;;;;;;4960928;28;20038;-94
2021/07/30 01:21:06;;;;;;;7.30;4.43;;;13.00;99.90;;;;;;4960987;28;20035;-94
2021/07/30 01:23:32;;;;;;;9.02;3.95;;;13.00;99.90;;;;;;4960976;28;20031;-95
2021/07/30 01:25:57;;;;;;;7.97;4.18;;;13.10;99.90;;;;;;4961232;28;20070;-94
2021/07/30 01:28:28;;;;;;;13.50;4.25;;;13.10;99.90;;;;;;4961226;28;20215;-96
2021/07/30 01:30:54;;;;;;;7.95;4.72;;;13.10;99.90;;;;;;4961230;28;20033;-96
2021/07/30 01:33:20;;;;;;;4.72;3.60;;;13.10;99.90;;;;;;4961157;28;20023;-94
2021/07/30 01:35:45;;;;;;;7.25;4.20;;;13.10;99.90;;;;;;4961026;28;20046;-92
2021/07/30 01:38:11;;;;;;;7.45;3.88;;;13.10;99.90;;;;;;4960734;28;20043;-95
2021/07/30 01:40:36;;;;;;;9.30;3.72;;;13.10;99.90;;;;;;4961110;28;20019;-95
2021/07/30 01:43:02;;;;;;;6.97;4.10;;;13.10;99.90;;;;;;4961964;28;20053;-96
2021/07/30 01:45:28;;;;;;;8.85;4.00;;;13.20;99.90;;;;;;4963030;28;20023;-93
2021/07/30 01:47:53;;;;;;;10.73;4.30;;;13.10;99.90;;;;;;4961576;28;20031;-94
2021/07/30 01:50:19;;;;;;;8.80;4.35;;;13.10;99.90;;;;;;4943284;29;20039;-95
2021/07/30 01:52:45;;;;;;;5.63;3.55;;;13.20;99.90;;;;;;4940661;29;20023;-95
2021/07/30 01:55:10;;;;;;;7.50;4.47;;;13.10;99.90;;;;;;4940301;29;20135;-94
2021/07/30 01:57:36;;;;;;;7.75;3.88;;;13.10;99.90;;;;;;4941067;29;20050;-95
2021/07/30 02:00:03;;;;;;;15.90;4.95;;;13.10;99.90;;;;;;4939151;29;20023;-94
2021/07/30 02:02:33;;;;;;;10.82;4.07;;;13.10;99.90;;;;;;4939182;29;20053;-93
2021/07/30 02:04:59;;;;;;;8.23;4.07;;;13.10;99.90;;;;;;4945623;29;20452;-95
2021/07/30 02:07:25;;;;;;;9.95;4.45;;;13.10;99.90;;;;;;4960213;29;20011;-94
2021/07/30 02:09:51;;;;;;;9.07;4.47;;;13.10;99.90;;;;;;4944081;29;20035;-94
2021/07/30 02:12:16;;;;;;;11.38;4.57;;;13.10;99.90;;;;;;4939945;29;20023;-93
2021/07/30 02:14:42;;;;;;;12.07;4.40;;;13.10;99.90;;;;;;4959862;29;20082;-94
2021/07/30 02:17:08;;;;;;;6.50;4.40;;;13.10;99.90;;;;;;4941318;29;20042;-93
2021/07/30 02:19:34;;;;;;;7.40;4.75;;;13.10;99.90;;;;;;4939627;29;20023;-94
2021/07/30 02:21:59;;;;;;;9.10;4.50;;;13.10;99.90;;;;;;4939577;29;20031;-93
2021/07/30 02:24:25;;;;;;;13.18;5.85;;;13.10;99.90;;;;;;4939258;29;20031;-94
2021/07/30 02:26:52;;;;;;;9.05;4.47;;;13.10;99.90;;;;;;4939918;29;20504;-94
2021/07/30 02:29:18;;;;;;;15.48;4.32;;;13.10;99.90;;;;;;4939614;29;20165;-95
2021/07/30 02:31:43;;;;;;;7.28;3.75;;;13.10;99.90;;;;;;4939386;29;20059;-95
2021/07/30 02:34:09;;;;;;;6.30;3.63;;;13.10;99.90;;;;;;4939342;29;20039;-93
2021/07/30 02:36:36;;;;;;;5.07;3.92;;;13.00;99.90;;;;;;4939097;29;20027;-96
2021/07/30 02:39:02;;;;;;;9.90;4.40;;;13.00;99.90;;;;;;4939682;29;20540;-94
2021/07/30 02:41:28;;;;;;;6.05;4.20;;;12.90;99.90;;;;;;4939339;29;20030;-95
2021/07/30 02:43:56;;;;;;;4.88;3.20;;;13.00;99.90;;;;;;4939561;29;20027;-95
2021/07/30 02:46:22;;;;;;;7.78;3.97;;;12.90;99.90;;;;;;4939887;29;20031;-95
2021/07/30 02:48:47;;;;;;;8.48;3.88;;;13.00;99.90;;;;;;4943729;28;20043;-94
2021/07/30 02:51:13;;;;;;;10.52;4.70;;;13.00;99.90;;;;;;4959623;28;20035;-96
2021/07/30 02:53:40;;;;;;;8.18;5.38;;;13.00;99.90;;;;;;4960768;28;20022;-94
2021/07/30 02:56:06;;;;;;;12.75;5.85;;;13.00;99.90;;;;;;4959753;28;20098;-93
2021/07/30 02:58:32;;;;;;;10.52;5.40;;;13.10;99.90;;;;;;4975811;28;20097;-93
2021/07/30 03:00:59;;;;;;;9.05;4.70;;;13.10;99.90;;;;;;4981734;28;20022;-95
2021/07/30 03:03:27;;;;;;;6.43;3.60;;;13.00;99.90;;;;;;4981840;28;20038;-94
2021/07/30 03:05:53;;;;;;;8.70;4.40;;;13.00;99.90;;;;;;4980841;28;20011;-94
2021/07/30 03:08:20;;;;;;;12.05;4.53;;;13.00;99.90;;;;;;4980839;28;20107;-94
2021/07/30 03:10:46;;;;;;;7.65;4.45;;;12.90;99.90;;;;;;4979754;28;20057;-94
2021/07/30 03:13:12;;;;;;;7.78;3.85;;;12.90;99.90;;;;;;4968949;28;20042;-95
2021/07/30 03:15:37;;;;;;;9.60;3.22;;;12.90;99.90;;;;;;4965189;28;20512;-94
2021/07/30 03:18:04;;;;;;;7.35;4.38;;;12.90;99.90;;;;;;4965864;28;20039;-94
2021/07/30 03:20:30;;;;;;;12.85;5.05;;;12.80;99.90;;;;;;4964873;28;20027;-94
2021/07/30 03:22:56;;;;;;;10.07;4.40;;;12.90;99.90;;;;;;4961414;28;20126;-94
2021/07/30 03:25:21;;;;;;;13.18;5.10;;;12.90;99.90;;;;;;4962144;28;20187;-95
2021/07/30 03:27:47;;;;;;;10.23;4.97;;;12.90;99.90;;;;;;4959902;28;20436;-95
2021/07/30 03:30:14;;;;;;;10.27;5.35;;;12.90;99.90;;;;;;4960495;28;20027;-95
2021/07/30 03:32:40;;;;;;;14.10;6.95;;;12.90;99.90;;;;;;4960856;28;20046;-94
2021/07/30 03:35:06;;;;;;;13.13;8.13;;;12.90;99.90;;;;;;4965202;28;20035;-96
2021/07/30 03:37:32;;;;;;;17.45;8.82;;;13.00;99.90;;;;;;4961904;28;20129;-94
2021/07/30 03:39:58;;;;;;;12.57;5.78;;;12.90;99.90;;;;;;4964978;28;20030;-96
2021/07/30 03:58:57;;;;;;;23.10;11.00;;;13.10;99.90;;;;;;5383948;23;20038;-96
2021/07/30 04:01:23;;;;;;;20.38;11.23;;;13.10;99.90;;;;;;4975434;29;20011;-95
2021/07/30 04:03:50;;;;;;;18.27;10.70;;;13.10;99.90;;;;;;4960984;29;20043;-96
2021/07/30 04:08:52;;;;;;;23.45;11.70;;;13.10;99.90;;;;;;5337958;23;20066;-96
2021/07/30 04:11:20;;;;;;;19.42;13.07;;;13.10;99.90;;;;;;4981494;28;20031;-95
2021/07/30 05:03:21;;;;;;;17.52;8.40;;;13.10;99.90;;;;;;5013900;28;20054;-96
2021/07/30 05:05:47;;;;;;;14.18;6.82;;;13.10;99.90;;;;;;5000232;28;20134;-96
2021/07/30 05:08:12;;;;;;;14.98;8.23;;;13.10;99.90;;;;;;5018983;28;20042;-96
2021/07/30 05:10:38;;;;;;;14.23;7.50;;;13.20;99.90;;;;;;5003433;28;20030;-96
2021/07/30 05:13:04;;;;;;;10.80;7.22;;;13.20;99.90;;;;;;4983346;28;20037;-96
2021/07/30 05:15:30;;;;;;;12.18;6.78;;;13.20;99.90;;;;;;5018619;28;20111;-96
2021/07/30 05:17:58;;;;;;;9.90;5.30;;;13.20;99.90;;;;;;5019698;28;20049;-95
2021/07/30 05:20:27;;;;;;;10.82;5.40;;;13.20;99.90;;;;;;5041033;23;20134;-96
2021/07/30 05:22:53;;;;;;;9.85;5.53;;;13.20;99.90;;;;;;4941666;29;20035;-96
2021/07/30 05:25:19;;;;;;;8.10;4.97;;;13.20;99.90;;;;;;4941606;29;20028;-96
2021/07/30 05:30:25;;;;;;;11.85;5.70;;;13.10;99.90;;;;;;5435814;23;20054;-95
2021/07/30 05:32:54;;;;;;;8.73;5.30;;;13.10;99.90;;;;;;5551999;23;20042;-94
2021/07/30 05:51:26;;;;;;;10.13;5.60;;;13.00;99.90;;;;;;5823634;23;20059;-96
2021/07/30 06:04:19;;;;;;;6.28;4.25;;;13.00;99.90;;;;;;5048185;23;20061;-96
2021/07/30 06:06:47;;;;;;;6.68;3.95;;;13.00;99.90;;;;;;4980062;28;20090;-96
2021/07/30 06:09:14;;;;;;;8.02;3.85;;;13.00;99.90;;;;;;4996611;28;20201;-96
2021/07/30 06:11:43;;;;;;;6.15;4.10;;;13.00;99.90;;;;;;5132403;23;20038;-96
2021/07/30 06:16:40;;;;;;;6.10;2.97;;;13.10;99.90;;;;;;5012622;28;20053;-95
2021/07/30 06:19:10;;;;;;;4.10;2.95;;;13.10;99.90;;;;;;4981430;28;20042;-96
2021/07/30 06:29:41;;;;;;;2.97;2.25;;;13.10;99.90;;;;;;5020987;23;20038;-96
2021/07/30 06:32:07;;;;;;;5.22;2.10;;;13.10;99.90;;;;;;4979956;28;20132;-96
2021/07/30 06:34:33;;;;;;;3.10;2.50;;;13.10;99.90;;;;;;4979262;28;20031;-96
2021/07/30 06:37:01;;;;;;;2.78;1.75;;;13.10;99.90;;;;;;4976172;28;20046;-95
2021/07/30 06:39:27;;;;;;;1.88;1.70;;;13.10;99.90;;;;;;4976903;28;20037;-96
2021/07/30 06:41:53;;;;;;;1.83;1.48;;;13.10;99.90;;;;;;4962277;28;20095;-96
2021/07/30 06:44:18;;;;;;;1.75;1.60;;;13.10;99.90;;;;;;4970752;28;20034;-95
2021/07/30 06:46:52;;;;;;;2.05;1.40;;;13.10;99.90;;;;;;4968182;28;20110;-96
2021/07/30 07:00:48;;;;;;;1.35;1.00;;;13.10;99.90;;;;;;6026929;23;20267;-94
2021/07/30 07:22:42;;;;;;;2.53;1.27;;;13.10;99.90;;;;;;5514940;23;20021;-98
2021/07/30 09:45:31;;;;;;;9.98;7.97;;;14.60;99.90;;;;;;5111445;23;21424;-94
2021/07/30 09:47:56;;;;;;;11.68;8.30;;;14.60;99.90;;;;;;4942604;29;20067;-95
2021/07/30 09:50:22;;;;;;;13.52;9.05;;;14.80;99.90;;;;;;4963021;29;20019;-94
2021/07/30 09:52:51;;;;;;;12.65;7.47;;;15.00;99.90;;;;;;4959469;28;20038;-96
2021/07/30 09:55:20;;;;;;;14.38;8.20;;;15.20;99.90;;;;;;4957583;29;20481;-95
2021/07/30 09:57:46;;;;;;;13.55;8.73;;;15.50;99.90;;;;;;4961142;28;20059;-96
2021/07/30 10:00:14;;;;;;;11.80;8.10;;;15.70;99.90;;;;;;4958868;29;20031;-94
2021/07/30 10:02:45;;;;;;;12.15;8.02;;;15.80;99.90;;;;;;4956753;29;20042;-94
2021/07/30 10:30:17;;;;;;;14.98;8.43;;;16.30;99.90;;;;;;4996963;28;20108;-96
2021/07/30 10:33:02;;;;;;;14.77;8.60;;;16.40;99.90;;;;;;4981814;28;20046;-95
2021/07/30 10:35:29;;;;;;;11.65;7.80;;;16.50;99.90;;;;;;5001842;28;20003;-96
2021/07/30 10:41:23;;;;;;;11.27;7.18;;;16.50;99.90;;;;;;5009133;23;2417947;-96
2021/07/30 10:44:01;;;;;;;10.20;5.30;;;16.60;99.90;;;;;;4988197;28;20030;-95
2021/07/30 10:46:35;;;;;;;10.10;6.05;;;16.60;99.90;;;;;;4990778;28;20094;-96
2021/07/30 10:49:01;;;;;;;9.95;6.03;;;16.60;99.90;;;;;;4965980;28;20125;-96
2021/07/30 10:51:28;;;;;;;10.13;5.57;;;16.70;99.90;;;;;;4964040;28;20090;-96
2021/07/30 10:53:58;;;;;;;9.82;6.13;;;16.80;99.90;;;;;;4968670;28;20034;-95
2021/07/30 10:56:24;;;;;;;8.57;5.07;;;16.80;99.90;;;;;;4961664;28;20018;-95
2021/07/30 10:58:50;;;;;;;9.07;4.82;;;16.90;99.90;;;;;;4958468;28;20081;-94
2021/07/30 11:01:17;;;;;;;7.05;4.82;;;16.90;99.90;;;;;;4961033;28;20022;-93
2021/07/30 11:03:52;;;;;;;10.07;5.15;;;17.00;99.90;;;;;;4963564;28;20034;-93
2021/07/30 11:06:26;;;;;;;11.55;5.15;;;17.00;99.90;;;;;;4968331;28;20026;-94
2021/07/30 11:09:14;;;;;;;9.13;5.05;;;17.00;99.90;;;;;;4975909;28;20042;-94
2021/07/30 11:11:50;;;;;;;7.35;4.78;;;17.10;99.90;;;;;;4973031;28;20114;-95
2021/07/30 11:14:24;;;;;;;6.57;4.78;;;17.10;99.90;;;;;;4970674;28;20030;-96
2021/07/30 11:16:58;;;;;;;9.45;5.40;;;17.20;99.90;;;;;;4969675;28;20026;-95
2021/07/30 11:19:26;;;;;;;10.35;5.32;;;17.40;99.90;;;;;;4965874;28;20680;-96
2021/07/30 11:21:56;;;;;;;6.30;4.88;;;17.50;99.90;;;;;;4953295;28;20041;-95
2021/07/30 11:24:22;;;;;;;10.45;4.65;;;17.50;99.90;;;;;;4947536;28;20030;-94
2021/07/30 11:26:48;;;;;;;7.18;5.60;;;17.50;99.90;;;;;;4960217;28;20029;-95
2021/07/30 11:29:16;;;;;;;7.75;5.93;;;17.50;99.90;;;;;;4960726;28;20023;-94
2021/07/30 11:31:55;;;;;;;9.05;6.30;;;17.50;99.90;;;;;;4957728;28;20027;-95
2021/07/30 11:34:46;;;;;;;9.85;5.90;;;17.60;99.90;;;;;;4960326;28;20031;-95
2021/07/30 11:37:32;;;;;;;6.70;6.07;;;17.50;99.90;;;;;;4970365;28;20034;-96
2021/07/30 11:40:11;;;;;;;11.05;6.20;;;17.50;99.90;;;;;;4959523;28;20035;-96
2021/07/30 11:42:39;;;;;;;7.80;6.93;;;17.40;99.90;;;;;;4973464;28;20039;-96
2021/07/30 11:45:17;;;;;;;8.13;6.35;;;17.40;99.90;;;;;;4966849;28;20031;-96
2021/07/30 11:47:47;;;;;;;7.20;6.40;;;17.30;99.90;;;;;;4969778;28;20041;-96
2021/07/30 11:50:31;;;;;;;7.10;6.38;;;17.20;99.90;;;;;;4986103;28;20034;-96
2021/07/30 11:53:05;;;;;;;7.47;6.65;;;17.00;99.90;;;;;;4968501;28;20035;-94
2021/07/30 11:55:31;;;;;;;9.13;6.90;;;16.80;99.90;;;;;;4963800;28;20043;-94
2021/07/30 11:58:10;;;;;;;11.38;7.50;;;16.60;99.90;;;;;;4969554;28;20042;-96
2021/07/30 12:00:36;;;;;;;10.32;8.02;;;16.50;99.90;;;;;;4971910;28;20113;-95
2021/07/30 12:03:22;;;;;;;8.20;6.93;;;16.40;99.90;;;;;;4967975;28;20027;-93
2021/07/30 12:05:57;;;;;;;9.57;6.70;;;16.20;99.90;;;;;;4967726;28;20094;-94
2021/07/30 12:08:23;;;;;;;7.63;6.22;;;16.10;99.90;;;;;;4968283;28;20026;-95
2021/07/30 12:10:50;;;;;;;7.85;6.25;;;16.00;99.90;;;;;;4970302;28;20019;-95
2021/07/30 12:13:22;;;;;;;5.93;5.32;;;16.00;99.90;;;;;;4979072;28;20031;-96
2021/07/30 12:15:49;;;;;;;6.57;4.68;;;16.00;99.90;;;;;;4983890;28;20107;-95
2021/07/30 12:18:15;;;;;;;5.72;4.82;;;15.90;99.90;;;;;;4984330;28;20027;-95
2021/07/30 12:20:43;;;;;;;7.18;4.47;;;15.90;99.90;;;;;;4983528;28;20011;-95
2021/07/30 12:23:11;;;;;;;4.30;3.15;;;15.90;99.90;;;;;;4979644;28;20055;-95
2021/07/30 12:25:45;;;;;;;5.95;3.97;;;15.90;99.90;;;;;;4970192;28;20027;-96
2021/07/30 12:28:14;;;;;;;5.05;4.10;;;15.90;99.90;;;;;;4966696;28;20025;-95
2021/07/30 12:30:40;;;;;;;6.93;5.25;;;15.80;99.90;;;;;;4968434;28;20027;-95
2021/07/30 12:34:02;;;;;;;6.05;4.68;;;15.80;99.90;;;;;;4973700;28;20107;-96
2021/07/30 12:36:39;;;;;;;5.50;4.55;;;15.80;99.90;;;;;;4988501;28;20058;-96
2021/07/30 12:39:10;;;;;;;5.28;4.20;;;15.80;99.90;;;;;;4976931;28;20057;-96
2021/07/30 12:41:36;;;;;;;3.10;2.40;;;15.80;99.90;;;;;;4960423;28;20058;-95
2021/07/30 12:44:23;;;;;;;1.95;1.60;;;15.80;99.90;;;;;;4985428;28;20027;-96
2021/07/30 12:46:52;;;;;;;1.50;1.40;;;15.70;99.90;;;;;;4968285;28;20026;-96
2021/07/30 12:49:34;;;;;;;2.60;1.20;;;15.60;99.90;;;;;;4966549;28;20050;-95
2021/07/30 12:52:14;;;;;;;1.52;1.42;;;15.50;99.90;;;;;;4965387;28;20022;-96
2021/07/30 12:54:40;;;;;;;1.83;1.67;;;15.40;99.90;;;;;;4950561;28;20412;-96
2021/07/30 12:57:07;;;;;;;1.92;1.83;;;15.40;99.90;;;;;;4959448;28;20039;-96
2021/07/30 12:59:55;;;;;;;2.35;2.15;;;15.20;99.90;;;;;;4957830;28;20058;-95
2021/07/30 13:02:31;;;;;;;2.05;1.88;;;15.20;99.90;;;;;;4961872;28;20023;-96
2021/07/30 13:04:57;;;;;;;1.98;1.83;;;15.10;99.90;;;;;;4960821;28;20472;-95
2021/07/30 13:07:29;;;;;;;5.93;2.70;;;15.10;99.90;;;;;;4965872;28;20109;-96
2021/07/30 13:09:58;;;;;;;2.67;2.30;;;15.10;99.90;;;;;;4968380;28;20592;-96
2021/07/30 13:12:27;;;;;;;2.90;2.55;;;15.10;99.90;;;;;;4969471;28;20023;-96
2021/07/30 13:14:53;;;;;;;3.92;3.00;;;15.10;99.90;;;;;;4968079;28;20033;-96
2021/07/30 13:17:19;;;;;;;4.07;2.50;;;15.10;99.90;;;;;;4971192;28;20122;-96
2021/07/30 13:19:45;;;;;;;5.85;3.78;;;15.10;99.90;;;;;;4972247;28;20499;-95
2021/07/30 13:22:13;;;;;;;3.35;3.05;;;15.10;99.90;;;;;;4972155;28;20527;-96
2021/07/30 13:24:38;;;;;;;4.80;3.28;;;15.10;99.90;;;;;;4949155;28;20081;-96
2021/07/30 13:27:05;;;;;;;4.03;3.50;;;15.00;99.90;;;;;;4969480;28;20110;-96
2021/07/30 13:29:30;;;;;;;3.83;3.10;;;15.00;99.90;;;;;;4946038;28;20045;-96
2021/07/30 13:31:56;;;;;;;4.47;3.10;;;15.00;99.90;;;;;;4969044;28;20027;-95
2021/07/30 13:34:22;;;;;;;3.30;3.00;;;15.00;99.90;;;;;;4962001;28;20022;-94
2021/07/30 13:36:48;;;;;;;3.42;3.13;;;15.00;99.90;;;;;;4965413;28;20472;-96
2021/07/30 13:39:13;;;;;;;3.88;3.47;;;14.90;99.90;;;;;;4969236;28;20073;-96
2021/07/30 13:41:39;;;;;;;4.30;3.88;;;14.90;99.90;;;;;;4958758;28;20055;-95
2021/07/30 13:44:08;;;;;;;4.40;3.85;;;14.90;99.90;;;;;;4963707;28;20027;-94
2021/07/30 13:46:34;;;;;;;6.18;3.80;;;14.80;99.90;;;;;;4961269;28;20027;-95
2021/07/30 13:49:10;;;;;;;3.42;3.10;;;14.80;99.90;;;;;;4965394;28;20042;-96
2021/07/30 13:51:36;;;;;;;4.40;3.47;;;14.80;99.90;;;;;;4982810;28;20022;-96
2021/07/30 13:54:02;;;;;;;4.43;3.92;;;14.70;99.90;;;;;;4976394;28;20034;-96
2021/07/30 13:56:28;;;;;;;5.85;3.85;;;14.70;99.90;;;;;;4969874;28;20031;-94
2021/07/30 13:58:56;;;;;;;3.72;3.38;;;14.70;99.90;;;;;;4968756;28;20046;-96
2021/07/30 14:01:32;;;;;;;5.85;4.22;;;14.60;99.90;;;;;;4982994;28;20174;-95
2021/07/30 14:04:06;;;;;;;5.40;3.42;;;14.60;99.90;;;;;;4985201;28;20031;-95
2021/07/30 14:06:31;;;;;;;4.88;3.45;;;14.60;99.90;;;;;;4963771;28;20093;-96
2021/07/30 14:11:38;;;;;;;5.13;3.83;;;14.60;99.90;;;;;;4995325;28;20074;-95
2021/07/30 14:14:03;;;;;;;4.50;4.10;;;14.70;99.90;;;;;;4988134;28;20038;-94
2021/07/30 14:16:29;;;;;;;4.18;3.08;;;14.60;99.90;;;;;;4975141;28;20197;-93
2021/07/30 14:18:58;;;;;;;3.33;3.00;;;14.60;99.90;;;;;;4971835;28;20041;-95
2021/07/30 14:21:23;;;;;;;3.00;2.70;;;14.60;99.90;;;;;;4969741;28;20388;-94
2021/07/30 14:23:49;;;;;;;3.15;2.53;;;14.60;99.90;;;;;;4968947;28;20042;-95
2021/07/30 14:26:15;;;;;;;3.38;2.03;;;14.60;99.90;;;;;;4985483;28;20018;-92
2021/07/30 14:28:41;;;;;;;3.00;2.10;;;14.60;99.90;;;;;;4990777;28;20077;-94
2021/07/30 14:31:12;;;;;;;2.53;2.33;;;14.60;99.90;;;;;;4968561;28;20022;-93
2021/07/30 14:33:38;;;;;;;4.00;2.10;;;14.60;99.90;;;;;;4968423;28;20586;-95
2021/07/30 14:36:06;;;;;;;2.35;2.13;;;14.60;99.90;;;;;;4969229;28;20110;-94
2021/07/30 14:38:32;;;;;;;2.35;1.80;;;14.60;99.90;;;;;;4970982;28;20031;-93
2021/07/30 14:40:58;;;;;;;1.98;1.75;;;14.60;99.90;;;;;;4987034;28;20026;-94
2021/07/30 14:43:23;;;;;;;1.50;1.40;;;14.60;99.90;;;;;;4970458;28;20022;-93
2021/07/30 14:45:49;;;;;;;1.67;1.58;;;14.60;99.90;;;;;;4967180;28;20042;-94
2021/07/30 14:48:19;;;;;;;1.77;1.60;;;14.70;99.90;;;;;;4956348;28;20023;-94
2021/07/30 14:50:48;;;;;;;2.00;1.75;;;14.70;99.90;;;;;;4949195;28;20027;-94
2021/07/30 14:53:14;;;;;;;2.17;1.80;;;14.70;99.90;;;;;;4949056;28;20023;-94
2021/07/30 14:55:39;;;;;;;1.88;1.65;;;14.70;99.90;;;;;;4949375;28;20150;-96
2021/07/30 14:58:05;;;;;;;3.17;1.95;;;14.80;99.90;;;;;;4948829;28;20527;-94
2021/07/30 15:00:31;;;;;;;6.28;1.90;;;14.80;99.90;;;;;;4950403;28;20035;-95
2021/07/30 15:03:02;;;;;;;4.20;1.80;;;14.80;99.90;;;;;;4951030;28;20087;-96
2021/07/30 15:05:27;;;;;;;2.25;2.03;;;14.90;99.90;;;;;;4952719;28;20037;-95
2021/07/30 15:07:53;;;;;;;4.60;1.70;;;14.90;99.90;;;;;;4957532;28;20460;-95
2021/07/30 15:10:19;;;;;;;3.50;1.40;;;14.90;99.90;;;;;;4963766;28;20047;-96
2021/07/30 15:12:48;;;;;;;1.30;1.23;;;14.90;99.90;;;;;;4962190;28;20035;-96
2021/07/30 15:15:14;;;;;;;1.40;1.30;;;15.00;99.90;;;;;;4994935;28;20054;-95
2021/07/30 15:17:40;;;;;;;1.35;0.80;;;15.00;99.90;;;;;;4950716;28;20141;-94
2021/07/30 15:20:07;;;;;;;0.60;0.60;;;15.00;99.90;;;;;;4969758;28;20508;-96
2021/07/30 15:22:33;;;;;;;0.50;0.50;;;15.00;99.90;;;;;;4982519;28;20054;-95
2021/07/30 15:24:59;;;;;;;0.50;0.50;;;15.10;99.90;;;;;;4966915;28;20026;-94
2021/07/30 15:27:25;;;;;;;1.23;1.00;;;15.10;99.90;;;;;;4968861;28;20073;-96
2021/07/30 15:29:51;;;;;;;1.00;0.90;;;15.10;99.90;;;;;;4967494;28;20038;-96
2021/07/30 15:38:21;;;;;;;1.42;1.02;;;15.20;99.90;;;;;;5167705;23;20085;-95
2021/07/30 15:40:46;;;;;;;1.42;1.20;;;15.20;99.90;;;;;;5001667;28;20480;-94
2021/07/30 15:43:12;;;;;;;1.48;1.13;;;15.20;99.90;;;;;;4979724;28;20068;-93
2021/07/30 15:45:38;;;;;;;1.17;1.05;;;15.20;99.90;;;;;;4979868;28;20061;-94
2021/07/30 15:48:07;;;;;;;2.03;1.30;;;15.20;99.90;;;;;;4961934;28;20042;-95
2021/07/30 15:50:34;;;;;;;1.63;1.38;;;15.20;99.90;;;;;;4959980;28;20559;-94
2021/07/30 15:53:00;;;;;;;1.88;1.58;;;15.20;99.90;;;;;;4959095;28;20023;-95
2021/07/30 15:55:25;;;;;;;1.75;1.40;;;15.30;99.90;;;;;;4957921;28;20396;-94
2021/07/30 15:57:51;;;;;;;2.15;1.23;;;15.20;99.90;;;;;;4958914;28;20043;-95
2021/07/30 16:00:18;;;;;;;1.50;1.33;;;15.20;99.90;;;;;;4957748;28;20029;-96
2021/07/30 16:02:43;;;;;;;1.48;1.38;;;15.20;99.90;;;;;;4958310;28;20061;-95
2021/07/30 16:05:09;;;;;;;2.22;1.30;;;15.20;99.90;;;;;;4958274;28;20105;-95
2021/07/30 16:07:35;;;;;;;1.70;1.60;;;15.10;99.90;;;;;;4957099;28;20027;-95
2021/07/30 16:10:01;;;;;;;2.30;1.73;;;15.10;99.90;;;;;;4958532;28;20034;-94
2021/07/30 16:12:27;;;;;;;2.10;1.88;;;15.10;99.90;;;;;;4958532;28;20041;-94
2021/07/30 16:14:52;;;;;;;2.05;1.70;;;15.00;99.90;;;;;;4958275;28;20345;-94
2021/07/30 16:17:18;;;;;;;3.78;1.73;;;15.00;99.90;;;;;;4957960;28;20398;-95
2021/07/30 16:19:44;;;;;;;2.53;1.80;;;15.00;99.90;;;;;;4959311;28;20369;-94
2021/07/30 16:22:09;;;;;;;1.73;1.60;;;14.90;99.90;;;;;;4958313;28;20075;-94
2021/07/30 16:24:35;;;;;;;2.03;1.88;;;14.90;99.90;;;;;;4957450;28;20027;-95
2021/07/30 16:27:01;;;;;;;2.45;2.25;;;14.90;99.90;;;;;;4958330;28;20030;-95
2021/07/30 16:29:27;;;;;;;2.65;2.20;;;14.90;99.90;;;;;;4958006;28;20027;-95
2021/07/30 16:31:53;;;;;;;4.78;2.53;;;14.90;99.90;;;;;;4962426;28;20027;-94
2021/07/30 16:34:18;;;;;;;4.05;2.17;;;14.90;99.90;;;;;;4958047;28;20027;-94
2021/07/30 16:36:44;;;;;;;2.50;1.90;;;14.90;99.90;;;;;;4962091;28;20057;-96
2021/07/30 16:39:11;;;;;;;2.90;2.40;;;14.90;99.90;;;;;;4953148;29;20051;-95
2021/07/30 16:41:36;;;;;;;5.72;4.10;;;14.90;99.90;;;;;;4942867;29;20030;-95
2021/07/30 16:44:02;;;;;;;8.13;5.45;;;14.90;99.90;;;;;;4942958;29;20027;-94
2021/07/30 16:46:28;;;;;;;7.70;4.47;;;14.80;99.90;;;;;;4944666;29;20485;-96
2021/07/30 16:48:53;;;;;;;5.82;3.90;;;14.80;99.90;;;;;;4943928;29;20481;-95
2021/07/30 16:51:21;;;;;;;5.35;4.20;;;14.80;99.90;;;;;;4950507;29;20023;-93
2021/07/30 16:53:47;;;;;;;4.78;3.90;;;14.80;99.90;;;;;;4955100;29;20027;-94
2021/07/30 16:56:18;;;;;;;5.40;3.78;;;14.70;99.90;;;;;;4956670;29;20059;-96
2021/07/30 16:58:47;;;;;;;4.47;3.75;;;14.70;99.90;;;;;;4963490;28;20031;-94
2021/07/30 17:01:14;;;;;;;5.93;3.50;;;14.70;99.90;;;;;;4942151;29;20023;-94
2021/07/30 17:03:41;;;;;;;5.30;3.53;;;14.60;99.90;;;;;;4941772;29;20039;-93
2021/07/30 17:06:07;;;;;;;5.50;2.97;;;14.60;99.90;;;;;;4941709;29;20090;-94
2021/07/30 17:08:33;;;;;;;6.68;3.17;;;14.60;99.90;;;;;;4941542;29;20031;-94
2021/07/30 17:11:04;;;;;;;3.63;2.72;;;14.50;99.90;;;;;;4941228;29;20185;-94
2021/07/30 17:13:30;;;;;;;5.65;3.00;;;14.50;99.90;;;;;;4941928;29;20019;-93
2021/07/30 17:15:56;;;;;;;5.20;2.83;;;14.40;99.90;;;;;;4942499;29;20122;-94
2021/07/30 17:18:22;;;;;;;5.15;2.97;;;14.30;99.90;;;;;;4941685;29;20126;-94
2021/07/30 17:20:48;;;;;;;4.82;3.22;;;14.30;99.90;;;;;;4942604;29;20071;-93
2021/07/30 17:23:14;;;;;;;3.35;2.90;;;14.20;99.90;;;;;;4941957;29;20129;-95
2021/07/30 17:25:40;;;;;;;6.32;2.83;;;14.20;99.90;;;;;;4942185;29;20031;-94
2021/07/30 17:28:09;;;;;;;5.32;2.95;;;14.10;99.90;;;;;;4942173;29;20035;-96
2021/07/30 17:30:36;;;;;;;5.63;2.92;;;14.10;99.90;;;;;;4941557;29;20027;-94
2021/07/30 17:33:02;;;;;;;4.50;2.63;;;14.10;99.90;;;;;;4943985;29;20035;-94
2021/07/30 17:35:28;;;;;;;7.05;3.00;;;14.10;99.90;;;;;;4941711;29;20028;-94
2021/07/30 17:37:54;;;;;;;6.55;3.05;;;14.10;99.90;;;;;;4941720;29;20512;-95
2021/07/30 17:40:20;;;;;;;3.95;3.22;;;14.10;99.90;;;;;;4976722;28;20047;-94
2021/07/30 17:42:46;;;;;;;4.45;3.10;;;14.10;99.90;;;;;;4961055;28;20485;-94
2021/07/30 17:45:12;;;;;;;5.78;3.40;;;14.10;99.90;;;;;;4960614;28;20035;-96
2021/07/30 17:47:38;;;;;;;3.97;2.85;;;14.10;99.90;;;;;;4958982;28;20027;-94
2021/07/30 17:50:04;;;;;;;4.75;2.92;;;14.10;99.90;;;;;;4960787;28;20046;-95
2021/07/30 17:52:30;;;;;;;4.28;3.35;;;14.10;99.90;;;;;;4960863;28;20488;-95
2021/07/30 17:54:55;;;;;;;4.65;3.00;;;14.10;99.90;;;;;;4961852;28;20042;-95
2021/07/30 17:57:21;;;;;;;5.78;2.78;;;14.10;99.90;;;;;;4959724;28;20046;-93
2021/07/30 17:59:47;;;;;;;6.90;2.90;;;14.10;99.90;;;;;;4959356;28;20098;-94
2021/07/30 18:02:13;;;;;;;3.50;2.92;;;14.10;99.90;;;;;;4959301;28;20584;-94
2021/07/30 18:04:39;;;;;;;6.18;3.05;;;14.10;99.90;;;;;;4959248;28;20118;-95